Terminal Aerodrome Forecast
Issued by NWS Corpus Christi, TX

Home | Current Version | Previous Version | Text Only | Print | Product List | Glossary On
Versions: 1 2 3 4 5 6 7 8 9 10 11 12 13 14 15 16 17
501
FTUS44 KCRP 270309 AAB
TAFCRP
TAF AMD
KCRP 270309Z 2703/2724 14015KT P6SM BKN011
     FM270800 16012KT P6SM OVC009
     FM271400 17018G26KT P6SM SCT018 BKN250
      TEMPO 2714/2716 BKN018
     FM271900 14020G28KT P6SM FEW035 SCT250=

USA.gov is the U.S. government's official web portal to all federal, state and local government web resources and services.